Stanley, NM (87056)

20:41 MDT le 04 juillet 2015 (GMT -0600)
Rural Stanley | | Change Station
CLOSE
Current Station
Stations météorologiques personnelles
Location: New Mexico, NM
Altitude: 6414 ft
Stations météo à proximité

Alt. 6414 ft 35.13 °N, 106.11 °W | Updated 22 seconds ago

Partiellement nuageux
Partiellement nuageux
67.6 ° F
Paraît 67.6 ° F
N
0.9
Vent Variable Vent de Ouest
Gusts 3.0 mph

Aujourd'hui
Haut(e) -- | Bas -- ° F
--% Risque de précip.
Hier
Haut(e) -- | Bas -- ° F
Precip. -- pouce
5:54 AM 8:21 PM
Lune gibbeuse décroissante, 88% visible
Pression 29.85 pouce
Visibilité 10.0 Miles terrestres
Nuages Ciel dégagé
Point de rosée 59 ° F
Humidité 73%
Précipitations 0.00 pouce
Profondeur de la couche neigeuse Non disponible.
UV 0.0 sur 12
Pollen .50 sur 12
Qualité de l'air Non disponible.
Flu Activity Non disponible.
METAR KSAF 050153Z 23006KT 10SM CLR 22/12 A3015 RMK AO2 RAE01 SLP106 T02170122 PNO

More Conditions Fewer Conditions

Pression 29.85 pouce
Visibilité 10.0 Miles terrestres
Nuages Ciel dégagé
Point de rosée 59 ° F
Humidité 73%
Précipitations 0.00 pouce
Profondeur de la couche neigeuse Non disponible.
UV 0.0 sur 12
Pollen .50 sur 12
Qualité de l'air Non disponible.
Flu Activity Non disponible.
METAR KSAF 050153Z 23006KT 10SM CLR 22/12 A3015 RMK AO2 RAE01 SLP106 T02170122 PNO

More Conditions Fewer Conditions

10-Day Weather Forecast

×

Almanac

Astronomie

Jul. 04, 2015 Lever Coucher
Temps réel
Crépuscule civil
Crépuscule nautique
Crépuscule astronomique
Lune
Durée de lumière visible
Longueur du jour
Tomorrow will be .
, % of the Moon is Illuminated

Extrêmes aujourd'hui

State Highs State Lows

Community

WunderPhotos

Upload Photos

1,835,172 Photos téléchargées !

WunderBlogs® & News

Nearby

Qualité de l'air

  Qualité de l'air Indice de la qualité de l'air Polluant
Not available.

Épaisseur de neige

Station Depth Altitude

Activité sismique

Ville Distance Mag. Time & Date
Minimum magnitude displayed is 2.5.

Températures des eaux côtières

Lieu Température

Stations

Stations météo à proximité

Emplacement de la station Température Refroidissement éolien Point de rosée Humidité Vent Precip. Alt. Mise à jour Type